createdAt,value
2023-04-06T00:01:37.745Z,8.90
2023-04-06T00:04:25.285Z,9.07
2023-04-06T00:07:12.923Z,9.20
2023-04-06T00:10:00.499Z,8.57
2023-04-06T00:12:47.899Z,9.75
2023-04-06T00:15:35.617Z,10.20
2023-04-06T00:18:24.098Z,10.13
2023-04-06T00:21:15.616Z,9.77
2023-04-06T00:24:04.857Z,10.23
2023-04-06T00:26:52.333Z,9.63
2023-04-06T00:29:40.992Z,9.55
2023-04-06T00:32:28.876Z,9.30
2023-04-06T00:35:16.739Z,8.40
2023-04-06T00:38:04.163Z,10.52
2023-04-06T00:40:51.657Z,9.57
2023-04-06T00:43:39.050Z,8.73
2023-04-06T00:46:26.500Z,8.88
2023-04-06T00:49:13.917Z,7.93
2023-04-06T00:52:02.569Z,8.55
2023-04-06T00:54:50.888Z,7.45
2023-04-06T00:57:38.540Z,6.80
2023-04-06T01:00:26.607Z,7.75
2023-04-06T01:03:14.722Z,7.35
2023-04-06T01:06:02.156Z,7.57
2023-04-06T01:08:49.605Z,7.85
2023-04-06T01:11:37.026Z,7.72
2023-04-06T01:14:25.326Z,7.50
2023-04-06T01:17:12.921Z,7.18
2023-04-06T01:20:00.343Z,6.75
2023-04-06T01:22:47.785Z,7.32
2023-04-06T01:25:35.414Z,7.38
2023-04-06T01:28:22.975Z,7.88
2023-04-06T01:31:10.804Z,7.57
2023-04-06T01:33:58.288Z,8.07
2023-04-06T01:36:46.003Z,8.05
2023-04-06T01:39:33.551Z,6.70
2023-04-06T01:42:21.293Z,7.47
2023-04-06T01:45:09.074Z,7.95
2023-04-06T01:47:56.532Z,7.35
2023-04-06T01:50:44.090Z,7.70
2023-04-06T01:53:31.543Z,7.47
2023-04-06T01:56:18.979Z,7.70
2023-04-06T01:59:06.831Z,7.95
2023-04-06T02:01:54.530Z,8.43
2023-04-06T02:04:41.980Z,8.27
2023-04-06T02:07:29.394Z,8.40
2023-04-06T02:10:16.871Z,8.25
2023-04-06T02:13:04.354Z,8.70
2023-04-06T02:15:52.088Z,8.55
2023-04-06T02:18:39.481Z,7.97
2023-04-06T02:21:26.920Z,9.20
2023-04-06T02:24:14.322Z,9.30
2023-04-06T02:27:01.842Z,10.18
2023-04-06T02:29:49.292Z,9.57
2023-04-06T02:32:36.792Z,9.77
2023-04-06T02:35:26.677Z,10.20
2023-04-06T02:38:14.072Z,9.18
2023-04-06T02:41:01.416Z,10.27
2023-04-06T02:43:48.802Z,8.70
2023-04-06T02:46:36.369Z,9.00
2023-04-06T02:49:23.839Z,10.48
2023-04-06T02:52:11.222Z,9.40
2023-04-06T02:54:58.615Z,10.77
2023-04-06T02:57:46.115Z,9.75
2023-04-06T03:00:33.640Z,9.82
2023-04-06T03:03:21.361Z,10.10
2023-04-06T03:06:08.790Z,10.50
2023-04-06T03:08:56.178Z,10.20
2023-04-06T03:11:43.548Z,10.35
2023-04-06T03:14:30.922Z,10.75
2023-04-06T03:17:18.330Z,9.50
2023-04-06T03:20:06.351Z,11.10
2023-04-06T03:22:53.751Z,10.63
2023-04-06T03:25:41.278Z,10.93
2023-04-06T03:28:28.652Z,10.35
2023-04-06T03:31:16.093Z,10.98
2023-04-06T03:34:03.531Z,10.43
2023-04-06T03:36:59.704Z,10.32
2023-04-06T03:39:54.432Z,10.75
2023-04-06T03:42:41.855Z,10.68
2023-04-06T03:45:29.479Z,11.20
2023-04-06T03:48:16.935Z,10.02
2023-04-06T03:51:04.667Z,10.68
2023-04-06T03:53:52.388Z,9.65
2023-04-06T03:56:39.875Z,9.20
2023-04-06T03:59:27.456Z,9.63
2023-04-06T04:02:15.071Z,9.95
2023-04-06T04:05:02.650Z,9.55
2023-04-06T04:07:50.137Z,10.45
2023-04-06T04:10:37.566Z,10.88
2023-04-06T04:13:25.019Z,9.65
2023-04-06T04:16:12.623Z,10.48
2023-04-06T04:19:00.142Z,9.80
2023-04-06T04:21:48.046Z,11.05
2023-04-06T04:24:35.831Z,10.05
2023-04-06T04:27:23.258Z,10.30
2023-04-06T04:30:11.089Z,11.35
2023-04-06T04:32:58.600Z,11.13
2023-04-06T04:35:46.272Z,10.68
2023-04-06T04:38:33.731Z,11.07
2023-04-06T04:41:21.166Z,11.35
2023-04-06T04:44:08.680Z,11.40
2023-04-06T04:46:56.187Z,12.02
2023-04-06T04:49:43.765Z,11.57
2023-04-06T04:52:31.158Z,12.32
2023-04-06T04:55:18.806Z,12.00
2023-04-06T04:58:06.240Z,12.50
2023-04-06T05:00:53.629Z,12.77
2023-04-06T05:03:41.336Z,11.90
2023-04-06T05:06:29.008Z,12.70
2023-04-06T05:09:16.974Z,12.60
2023-04-06T05:12:04.505Z,12.05
2023-04-06T05:14:52.183Z,13.13
2023-04-06T05:17:39.699Z,11.27
2023-04-06T05:20:27.253Z,12.35
2023-04-06T05:23:14.676Z,12.32
2023-04-06T05:26:02.560Z,12.27
2023-04-06T05:28:50.130Z,12.07
2023-04-06T05:31:37.598Z,12.00
2023-04-06T05:34:25.150Z,12.35
2023-04-06T05:37:12.621Z,10.57
2023-04-06T05:40:00.049Z,10.73
2023-04-06T05:42:47.863Z,11.27
2023-04-06T05:45:36.037Z,11.05
2023-04-06T05:48:23.332Z,11.40
2023-04-06T05:51:11.079Z,10.57
2023-04-06T05:53:59.008Z,10.07
2023-04-06T05:56:46.568Z,10.40
2023-04-06T05:59:36.859Z,10.60
2023-04-06T06:02:24.679Z,10.45
2023-04-06T06:05:12.205Z,10.85
2023-04-06T06:07:59.747Z,11.00
2023-04-06T06:10:47.145Z,10.98
2023-04-06T06:13:34.564Z,10.00
2023-04-06T06:16:22.381Z,11.38
2023-04-06T06:19:09.871Z,11.27
2023-04-06T06:21:57.570Z,12.30
2023-04-06T06:24:45.168Z,12.30
2023-04-06T06:27:32.678Z,12.95
2023-04-06T06:30:22.471Z,13.27
2023-04-06T06:33:11.099Z,13.32
2023-04-06T06:35:58.593Z,14.13
2023-04-06T06:38:46.179Z,14.07
2023-04-06T06:41:33.671Z,13.30
2023-04-06T06:44:21.338Z,13.93
2023-04-06T06:47:08.849Z,14.85
2023-04-06T06:49:56.587Z,15.32
2023-04-06T06:52:44.594Z,15.07
2023-04-06T06:55:32.111Z,14.93
2023-04-06T06:58:21.017Z,16.13
2023-04-06T07:01:08.577Z,14.88
2023-04-06T07:03:56.370Z,15.43
2023-04-06T07:06:43.838Z,15.80
2023-04-06T07:09:31.598Z,15.30
2023-04-06T07:12:19.124Z,15.18
2023-04-06T07:15:07.225Z,14.35
2023-04-06T07:17:55.889Z,14.95
2023-04-06T07:20:43.449Z,16.63
2023-04-06T07:23:30.876Z,14.85
2023-04-06T07:26:18.280Z,14.73
2023-04-06T07:29:05.743Z,15.57
2023-04-06T07:31:53.358Z,15.38
2023-04-06T07:34:40.929Z,16.55
2023-04-06T07:37:28.319Z,15.20
2023-04-06T07:40:16.074Z,15.48
2023-04-06T07:43:03.516Z,16.05
2023-04-06T07:45:51.212Z,17.10
2023-04-06T07:48:38.598Z,15.65
2023-04-06T07:51:26.486Z,16.83
2023-04-06T07:54:13.952Z,16.63
2023-04-06T07:57:01.569Z,16.73
2023-04-06T07:59:49.066Z,17.60
2023-04-06T08:02:36.686Z,17.38
2023-04-06T08:05:24.212Z,17.27
2023-04-06T08:08:11.781Z,15.68
2023-04-06T08:11:01.471Z,16.90
2023-04-06T08:13:49.578Z,17.42
2023-04-06T08:16:37.036Z,15.57
2023-04-06T08:19:24.470Z,16.15
2023-04-06T08:22:12.512Z,16.48
2023-04-06T08:25:00.080Z,16.42
2023-04-06T08:27:47.668Z,16.55
2023-04-06T08:30:35.234Z,16.65
2023-04-06T08:33:22.878Z,16.60
2023-04-06T08:36:14.790Z,16.50
2023-04-06T08:39:02.353Z,15.40
2023-04-06T08:41:50.543Z,15.85
2023-04-06T08:44:38.810Z,16.65
2023-04-06T08:47:26.493Z,15.60
2023-04-06T08:50:14.217Z,16.42
2023-04-06T08:53:02.454Z,15.98
2023-04-06T08:55:49.935Z,15.68
2023-04-06T08:58:41.097Z,16.42
2023-04-06T09:01:29.724Z,17.10
2023-04-06T09:04:17.818Z,15.45
2023-04-06T09:07:05.634Z,16.63
2023-04-06T09:09:53.084Z,15.52
2023-04-06T09:12:40.993Z,15.82
2023-04-06T09:15:28.515Z,15.52
2023-04-06T09:18:29.662Z,16.20
2023-04-06T09:21:22.637Z,16.85
2023-04-06T09:24:12.315Z,16.25
2023-04-06T09:26:59.855Z,16.10
2023-04-06T09:29:47.271Z,15.45
2023-04-06T09:32:46.823Z,15.52
2023-04-06T09:35:34.356Z,15.10
2023-04-06T09:38:21.883Z,14.70
2023-04-06T09:41:09.814Z,15.05
2023-04-06T09:44:13.496Z,14.75
2023-04-06T09:47:01.747Z,15.00
2023-04-06T09:49:51.709Z,15.20
2023-04-06T09:52:43.591Z,14.88
2023-04-06T09:55:36.849Z,14.57
2023-04-06T09:58:27.725Z,14.98
2023-04-06T10:01:19.781Z,13.55
2023-04-06T10:04:20.723Z,14.63
2023-04-06T10:07:09.026Z,14.23
2023-04-06T10:09:56.963Z,15.18
2023-04-06T10:12:46.228Z,14.30
2023-04-06T10:15:34.960Z,15.52
2023-04-06T10:18:22.829Z,15.07
2023-04-06T10:21:13.414Z,14.90
2023-04-06T10:24:02.818Z,14.98
2023-04-06T10:27:04.965Z,13.95
2023-04-06T10:29:52.505Z,14.38
2023-04-06T10:32:40.836Z,13.82
2023-04-06T10:35:41.830Z,14.35
2023-04-06T10:38:39.658Z,14.50
2023-04-06T10:41:35.893Z,14.88
2023-04-06T10:44:25.100Z,13.77
2023-04-06T10:47:18.953Z,13.20
2023-04-06T10:50:06.979Z,14.13
2023-04-06T10:53:01.940Z,13.73
2023-04-06T10:55:51.886Z,13.98
2023-04-06T10:58:44.546Z,14.52
2023-04-06T11:01:31.976Z,14.15
2023-04-06T11:04:21.072Z,14.50
2023-04-06T11:07:08.709Z,14.07
2023-04-06T11:10:13.531Z,14.50
2023-04-06T11:13:01.956Z,15.15
2023-04-06T11:15:50.086Z,14.25
2023-04-06T11:18:37.882Z,14.77
2023-04-06T11:21:41.038Z,14.48
2023-04-06T11:24:28.687Z,14.82
2023-04-06T11:27:17.226Z,13.60
2023-04-06T11:30:05.640Z,14.95
2023-04-06T11:32:53.096Z,14.55
2023-04-06T11:35:40.837Z,15.88
2023-04-06T11:38:28.357Z,16.20
2023-04-06T11:41:16.011Z,15.45
2023-04-06T11:44:04.126Z,14.48
2023-04-06T11:46:54.886Z,15.20
2023-04-06T11:49:45.606Z,14.73
2023-04-06T11:52:33.255Z,14.57
2023-04-06T11:55:20.894Z,15.77
2023-04-06T11:58:08.387Z,14.95
2023-04-06T12:01:04.985Z,13.07
2023-04-06T12:03:53.373Z,14.70
2023-04-06T12:06:41.010Z,13.95
2023-04-06T12:09:28.466Z,15.30
2023-04-06T12:12:15.960Z,16.73
2023-04-06T12:15:03.722Z,16.85
2023-04-06T12:17:51.133Z,14.15
2023-04-06T12:20:38.588Z,15.10
2023-04-06T12:23:27.111Z,14.48
2023-04-06T12:26:14.563Z,15.82
2023-04-06T12:29:08.208Z,15.55
2023-04-06T12:31:56.097Z,15.25
2023-04-06T12:34:43.587Z,12.45
2023-04-06T12:37:30.994Z,14.85
2023-04-06T12:40:18.538Z,15.13
2023-04-06T12:43:06.145Z,13.10
2023-04-06T12:45:53.603Z,14.00
2023-04-06T12:48:41.317Z,13.50
2023-04-06T12:51:28.992Z,13.20
2023-04-06T12:54:16.458Z,13.38
2023-04-06T12:57:04.152Z,14.85
2023-04-06T12:59:52.540Z,13.82
2023-04-06T13:02:40.038Z,13.95
2023-04-06T13:05:29.564Z,13.63
2023-04-06T13:08:19.789Z,14.02
2023-04-06T13:11:10.094Z,13.50
2023-04-06T13:13:57.637Z,13.45
2023-04-06T13:16:47.931Z,13.02
2023-04-06T13:19:35.536Z,13.85
2023-04-06T13:22:22.944Z,12.07
2023-04-06T13:25:10.444Z,12.45
2023-04-06T13:27:57.839Z,12.65
2023-04-06T13:30:49.682Z,12.00
2023-04-06T13:33:37.398Z,10.88
2023-04-06T13:36:25.152Z,10.93
2023-04-06T13:39:12.607Z,10.48
2023-04-06T13:42:01.610Z,12.30
2023-04-06T13:44:51.673Z,11.80
2023-04-06T13:47:39.141Z,11.93
2023-04-06T13:50:30.643Z,12.43
2023-04-06T13:53:18.728Z,10.98
2023-04-06T13:56:06.897Z,12.27
2023-04-06T13:58:57.795Z,11.63
2023-04-06T14:01:45.404Z,12.63
2023-04-06T14:04:33.264Z,12.65
2023-04-06T14:07:22.862Z,11.85
2023-04-06T14:10:14.858Z,12.30
2023-04-06T14:13:02.645Z,12.18
2023-04-06T14:15:55.052Z,11.50
2023-04-06T14:18:43.596Z,11.50
2023-04-06T14:21:32.350Z,11.70
2023-04-06T14:24:21.668Z,11.05
2023-04-06T14:27:09.373Z,11.68
2023-04-06T14:29:57.260Z,12.32
2023-04-06T14:32:44.994Z,11.70
2023-04-06T14:35:33.512Z,12.18
2023-04-06T14:38:21.243Z,11.73
2023-04-06T14:41:09.918Z,10.95
2023-04-06T14:43:57.653Z,11.10
2023-04-06T14:46:45.384Z,10.13
2023-04-06T14:49:32.994Z,10.95
2023-04-06T14:52:20.663Z,9.60
2023-04-06T14:55:08.479Z,9.65
2023-04-06T14:57:56.215Z,10.32
2023-04-06T15:00:49.193Z,10.23
2023-04-06T15:03:37.251Z,9.85
2023-04-06T15:06:24.857Z,10.07
2023-04-06T15:09:15.927Z,9.90
2023-04-06T15:12:03.968Z,9.77
2023-04-06T15:14:51.616Z,9.48
2023-04-06T15:17:42.261Z,9.60
2023-04-06T15:20:30.637Z,9.93
2023-04-06T15:23:18.848Z,9.40
2023-04-06T15:26:06.315Z,9.88
2023-04-06T15:28:53.911Z,9.60
2023-04-06T15:31:41.841Z,10.30
2023-04-06T15:34:31.904Z,9.05
2023-04-06T15:37:19.481Z,9.65
2023-04-06T15:40:07.723Z,9.75
2023-04-06T15:42:55.558Z,9.10
2023-04-06T15:45:43.054Z,9.23
2023-04-06T15:48:31.987Z,9.63
2023-04-06T15:51:19.852Z,10.65
2023-04-06T15:54:07.406Z,9.90
2023-04-06T15:56:54.840Z,10.57
2023-04-06T15:59:42.777Z,10.70
2023-04-06T16:02:31.153Z,10.30
2023-04-06T16:05:19.083Z,9.10
2023-04-06T16:08:08.188Z,9.25
2023-04-06T16:10:55.998Z,8.43
2023-04-06T16:13:47.320Z,7.60
2023-04-06T16:16:43.615Z,7.60
2023-04-06T16:19:46.313Z,6.82
2023-04-06T16:22:36.842Z,7.45
2023-04-06T16:25:24.692Z,7.22
2023-04-06T16:28:15.493Z,6.70
2023-04-06T16:31:03.540Z,7.90
2023-04-06T16:33:53.292Z,6.93
2023-04-06T16:36:43.757Z,7.40
2023-04-06T16:39:31.277Z,6.70
2023-04-06T16:42:20.728Z,7.18
2023-04-06T16:45:08.456Z,7.75
2023-04-06T16:47:58.579Z,7.20
2023-04-06T16:50:47.127Z,7.35
2023-04-06T16:53:35.787Z,8.27
2023-04-06T16:56:23.617Z,8.95
2023-04-06T16:59:14.193Z,8.68
2023-04-06T17:02:05.612Z,8.35
2023-04-06T17:04:53.519Z,7.88
2023-04-06T17:07:46.386Z,8.10
2023-04-06T17:10:41.220Z,7.22
2023-04-06T17:13:34.640Z,7.80
2023-04-06T17:16:27.047Z,7.40
2023-04-06T17:19:16.407Z,7.15
2023-04-06T17:22:04.215Z,6.63
2023-04-06T17:24:51.948Z,6.85
2023-04-06T17:27:39.865Z,6.85
2023-04-06T17:30:27.744Z,7.18
2023-04-06T17:33:16.743Z,7.18
2023-04-06T17:36:05.442Z,6.40
2023-04-06T17:38:53.782Z,6.47
2023-04-06T17:41:41.326Z,6.55
2023-04-06T17:44:28.772Z,6.88
2023-04-06T17:47:09.854Z,5.88
2023-04-06T17:49:58.428Z,5.72
2023-04-06T17:55:34.156Z,5.40
2023-04-06T17:58:22.452Z,4.90
2023-04-06T18:01:14.468Z,5.30
2023-04-06T18:04:02.261Z,5.68
2023-04-06T18:06:49.794Z,6.43
2023-04-06T18:09:38.894Z,5.60
2023-04-06T18:12:26.467Z,5.30
2023-04-06T18:15:16.673Z,6.22
2023-04-06T18:18:05.040Z,6.43
2023-04-06T18:20:52.541Z,6.85
2023-04-06T18:23:39.977Z,7.20
2023-04-06T18:26:27.457Z,6.65
2023-04-06T18:29:15.220Z,7.45
2023-04-06T18:32:02.699Z,7.05
2023-04-06T18:34:50.400Z,7.47
2023-04-06T18:37:37.921Z,7.10
2023-04-06T18:40:36.492Z,8.00
2023-04-06T18:43:25.053Z,7.93
2023-04-06T18:46:19.202Z,7.28
2023-04-06T18:51:57.708Z,7.30
2023-04-06T18:54:45.152Z,8.43
2023-04-06T18:57:32.640Z,7.63
2023-04-06T19:00:20.392Z,8.40
2023-04-06T19:03:08.093Z,7.85
2023-04-06T19:05:55.776Z,7.95
2023-04-06T19:08:43.351Z,9.45
2023-04-06T19:11:32.424Z,8.82
2023-04-06T19:14:20.111Z,8.82
2023-04-06T19:17:07.586Z,9.10
2023-04-06T19:19:57.733Z,9.48
2023-04-06T19:22:45.223Z,8.80
2023-04-06T19:25:32.749Z,9.13
2023-04-06T19:28:20.370Z,9.63
2023-04-06T19:31:08.913Z,10.80
2023-04-06T19:33:56.500Z,10.85
2023-04-06T19:36:44.894Z,10.73
2023-04-06T19:39:32.892Z,10.60
2023-04-06T19:42:21.722Z,11.05
2023-04-06T19:45:09.405Z,10.95
2023-04-06T19:47:56.999Z,11.50
2023-04-06T19:50:45.226Z,11.95
2023-04-06T19:53:35.960Z,13.05
2023-04-06T19:56:23.736Z,12.20
2023-04-06T19:59:11.433Z,12.65
2023-04-06T20:02:01.716Z,13.55
2023-04-06T20:04:49.645Z,14.07
2023-04-06T20:07:38.997Z,14.18
2023-04-06T20:10:29.243Z,15.40
2023-04-06T20:13:16.732Z,14.00
2023-04-06T20:16:04.722Z,15.48
2023-04-06T20:18:52.375Z,14.88
2023-04-06T20:21:41.078Z,15.77
2023-04-06T20:24:29.541Z,14.80
2023-04-06T20:27:18.498Z,16.30
2023-04-06T20:30:07.099Z,16.23
2023-04-06T20:32:55.001Z,17.13
2023-04-06T20:35:42.708Z,16.05
2023-04-06T20:38:33.791Z,15.38
2023-04-06T20:41:22.099Z,15.40
2023-04-06T20:44:10.083Z,16.35
2023-04-06T20:46:58.493Z,16.08
2023-04-06T20:49:46.209Z,17.55
2023-04-06T20:52:33.939Z,16.88
2023-04-06T20:55:21.609Z,16.73
2023-04-06T20:58:09.444Z,17.58
2023-04-06T21:00:57.014Z,18.63
2023-04-06T21:03:45.032Z,20.77
2023-04-06T21:06:32.805Z,18.98
2023-04-06T21:09:20.646Z,20.65
2023-04-06T21:12:08.410Z,20.55
2023-04-06T21:14:56.320Z,19.00
2023-04-06T21:17:44.353Z,19.50
2023-04-06T21:20:31.875Z,19.75
2023-04-06T21:23:19.392Z,21.05
2023-04-06T21:26:06.798Z,22.45
2023-04-06T21:28:54.225Z,21.75
2023-04-06T21:31:42.585Z,20.98
2023-04-06T21:34:30.277Z,21.23
2023-04-06T21:37:19.629Z,24.27
2023-04-06T21:40:08.044Z,21.65
2023-04-06T21:42:55.569Z,22.20
2023-04-06T21:45:49.700Z,23.20
2023-04-06T21:51:25.268Z,22.23
2023-04-06T21:54:12.829Z,25.10
2023-04-06T21:57:01.704Z,25.58
2023-04-06T21:59:49.172Z,24.60
2023-04-06T22:02:37.648Z,23.58
2023-04-06T22:05:25.466Z,25.20
2023-04-06T22:08:17.828Z,24.23
2023-04-06T22:11:13.438Z,25.80
2023-04-06T22:14:01.853Z,25.80
2023-04-06T22:16:49.369Z,25.55
2023-04-06T22:19:36.879Z,27.13
2023-04-06T22:22:24.977Z,26.27
2023-04-06T22:25:12.460Z,26.45
2023-04-06T22:27:59.868Z,26.80
2023-04-06T22:30:47.606Z,28.50
2023-04-06T22:33:35.210Z,31.45
2023-04-06T22:36:22.704Z,29.55
2023-04-06T22:39:22.150Z,29.20
2023-04-06T22:42:09.665Z,31.08
2023-04-06T22:44:57.169Z,30.48
2023-04-06T22:47:44.698Z,30.88
2023-04-06T22:50:32.598Z,34.47
2023-04-06T22:53:20.095Z,31.75
2023-04-06T22:56:07.801Z,30.02
2023-04-06T22:58:56.073Z,31.10
2023-04-06T23:01:43.558Z,32.50
2023-04-06T23:04:31.188Z,33.03
2023-04-06T23:07:18.839Z,29.45
2023-04-06T23:10:07.701Z,33.53
2023-04-06T23:12:55.357Z,31.52
2023-04-06T23:15:43.848Z,33.00
2023-04-06T23:18:31.559Z,35.60
2023-04-06T23:21:19.054Z,35.28
2023-04-06T23:24:07.055Z,34.03
2023-04-06T23:26:54.575Z,35.78
2023-04-06T23:29:42.100Z,36.28
2023-04-06T23:32:30.001Z,35.55
2023-04-06T23:35:17.588Z,36.72
2023-04-06T23:38:05.032Z,37.15
2023-04-06T23:40:52.594Z,36.13
2023-04-06T23:43:40.096Z,37.75
2023-04-06T23:46:27.795Z,37.28
2023-04-06T23:49:15.560Z,37.25
2023-04-06T23:52:03.362Z,37.75
2023-04-06T23:54:50.964Z,36.67
2023-04-06T23:57:38.460Z,39.10
